Kauhale Kai — V7MC9 — position and weather

sailwx.info

Track history (hours):
 
Tides and Currents Weather Stations Pressure Air Temp Water Temp Dewpoint Dewpoint Depression Visibility Wind Speed Wind Dir Waves Ship Positions

Kauhale Kai

Last reported at 2015-Jul-30 01:33 UTC. Time now 2015-Jul-30 02:06 UTC.
Position N 26°07' W 080°06'.

; draft 2.8 m.

Type: Pleasure craft. MMSI: 538070338.

Date/timePositionNaut miles runAvg speedWind from/ knotsBaromVisibWave heightAir tempDewpointWater temp
2015-Jul-30 01:33N 26°07' W 080°06'0 0.0
2015-Jul-30 00:33N 26°07' W 080°06'0 0.0
2015-Jul-29 23:33N 26°07' W 080°06'0 0.0
2015-Jul-29 22:33N 26°07' W 080°06'0 0.0
2015-Jul-29 21:34N 26°07' W 080°06'0 0.0
2015-Jul-29 20:34N 26°07' W 080°06'0 0.0
2015-Jul-29 19:33N 26°07' W 080°06'0 0.0
2015-Jul-29 18:34N 26°07' W 080°06'0 0.0
2015-Jul-29 17:33N 26°07' W 080°06'0 0.0
2015-Jul-29 16:33N 26°07' W 080°06'0 0.0
2015-Jul-29 15:33N 26°07' W 080°06'0 0.0
2015-Jul-29 14:33N 26°07' W 080°06'0 0.0
2015-Jul-29 13:33N 26°07' W 080°06'0 0.0
2015-Jul-29 12:33N 26°07' W 080°06'0 0.1
2015-Jul-29 11:33N 26°07' W 080°07'5 5.1
2015-Jul-29 10:33N 26°08' W 080°01'7 6.9
2015-Jul-29 09:33N 26°10' W 079°54'7 7.5
2015-Jul-29 08:33N 26°11' W 079°46'7 7.4
2015-Jul-29 07:33N 26°12' W 079°37'53 7.3
2015-Jul-29 00:17N 26°06' W 078°39'  
Track history (hours):
 
Tides and Currents Weather Stations Pressure Air Temp Water Temp Dewpoint Dewpoint Depression Visibility Wind Speed Wind Dir Waves Ship Positions

Kauhale Kai

Last reported at 2015-Jul-30 01:33 UTC. Time now 2015-Jul-30 02:06 UTC.
Position N 26°07' W 080°06'.

; draft 2.8 m.

Type: Pleasure craft. MMSI: 538070338.

Date/timePositionNaut miles runAvg speedWind from/ knotsBaromVisibWave heightAir tempDewpointWater temp
2015-Jul-30 01:33N 26°07' W 080°06'0 0.0
2015-Jul-30 00:33N 26°07' W 080°06'0 0.0
2015-Jul-29 23:33N 26°07' W 080°06'0 0.0
2015-Jul-29 22:33N 26°07' W 080°06'0 0.0
2015-Jul-29 21:34N 26°07' W 080°06'0 0.0
2015-Jul-29 20:34N 26°07' W 080°06'0 0.0
2015-Jul-29 19:33N 26°07' W 080°06'0 0.0
2015-Jul-29 18:34N 26°07' W 080°06'0 0.0
2015-Jul-29 17:33N 26°07' W 080°06'0 0.0
2015-Jul-29 16:33N 26°07' W 080°06'0 0.0
2015-Jul-29 15:33N 26°07' W 080°06'0 0.0
2015-Jul-29 14:33N 26°07' W 080°06'0 0.0
2015-Jul-29 13:33N 26°07' W 080°06'0 0.0
2015-Jul-29 12:33N 26°07' W 080°06'0 0.1
2015-Jul-29 11:33N 26°07' W 080°07'5 5.1
2015-Jul-29 10:33N 26°08' W 080°01'7 6.9
2015-Jul-29 09:33N 26°10' W 079°54'7 7.5
2015-Jul-29 08:33N 26°11' W 079°46'7 7.4
2015-Jul-29 07:33N 26°12' W 079°37'53 7.3
2015-Jul-29 00:17N 26°06' W 078°39'  

Dump ship's entire track history